sensor_id;sensor_type;location;lat;lon;timestamp;P1;durP1;ratioP1;P2;durP2;ratioP2
6679;SDS011;3376;42.664;23.346;2022-12-28T00:01:03;6.10;;;5.70;;
6679;SDS011;3376;42.664;23.346;2022-12-28T00:03:31;5.87;;;5.47;;
6679;SDS011;3376;42.664;23.346;2022-12-28T00:05:59;6.27;;;5.97;;
6679;SDS011;3376;42.664;23.346;2022-12-28T00:08:26;6.00;;;5.60;;
6679;SDS011;3376;42.664;23.346;2022-12-28T00:10:52;6.83;;;6.33;;
6679;SDS011;3376;42.664;23.346;2022-12-28T00:13:25;6.17;;;5.87;;
6679;SDS011;3376;42.664;23.346;2022-12-28T00:15:52;5.93;;;5.63;;
6679;SDS011;3376;42.664;23.346;2022-12-28T00:18:19;6.00;;;5.70;;
6679;SDS011;3376;42.664;23.346;2022-12-28T00:20:54;5.83;;;5.53;;
6679;SDS011;3376;42.664;23.346;2022-12-28T00:23:23;6.07;;;5.50;;
6679;SDS011;3376;42.664;23.346;2022-12-28T00:25:49;5.50;;;5.20;;
6679;SDS011;3376;42.664;23.346;2022-12-28T00:28:17;5.90;;;5.57;;
6679;SDS011;3376;42.664;23.346;2022-12-28T00:30:44;5.70;;;5.40;;
6679;SDS011;3376;42.664;23.346;2022-12-28T00:33:11;6.23;;;5.83;;
6679;SDS011;3376;42.664;23.346;2022-12-28T00:35:38;6.50;;;6.00;;
6679;SDS011;3376;42.664;23.346;2022-12-28T00:38:05;5.67;;;5.37;;
6679;SDS011;3376;42.664;23.346;2022-12-28T00:40:33;6.60;;;6.20;;
6679;SDS011;3376;42.664;23.346;2022-12-28T00:42:59;6.47;;;6.17;;
6679;SDS011;3376;42.664;23.346;2022-12-28T00:45:26;6.47;;;6.03;;
6679;SDS011;3376;42.664;23.346;2022-12-28T00:47:53;6.73;;;6.33;;
6679;SDS011;3376;42.664;23.346;2022-12-28T00:50:20;6.40;;;6.10;;
6679;SDS011;3376;42.664;23.346;2022-12-28T00:52:46;6.77;;;6.27;;
6679;SDS011;3376;42.664;23.346;2022-12-28T00:55:13;6.70;;;6.20;;
6679;SDS011;3376;42.664;23.346;2022-12-28T00:57:41;6.80;;;6.50;;
6679;SDS011;3376;42.664;23.346;2022-12-28T01:00:08;7.03;;;6.53;;
6679;SDS011;3376;42.664;23.346;2022-12-28T01:02:36;7.97;;;7.37;;
6679;SDS011;3376;42.664;23.346;2022-12-28T01:05:03;8.33;;;7.60;;
6679;SDS011;3376;42.664;23.346;2022-12-28T01:07:30;7.43;;;7.03;;
6679;SDS011;3376;42.664;23.346;2022-12-28T01:09:57;8.40;;;7.80;;
6679;SDS011;3376;42.664;23.346;2022-12-28T01:12:23;8.60;;;8.03;;
6679;SDS011;3376;42.664;23.346;2022-12-28T01:14:51;8.73;;;8.07;;
6679;SDS011;3376;42.664;23.346;2022-12-28T01:17:18;8.60;;;8.10;;
6679;SDS011;3376;42.664;23.346;2022-12-28T01:19:45;8.97;;;8.47;;
6679;SDS011;3376;42.664;23.346;2022-12-28T01:22:12;9.43;;;8.90;;
6679;SDS011;3376;42.664;23.346;2022-12-28T01:24:38;9.63;;;8.83;;
6679;SDS011;3376;42.664;23.346;2022-12-28T01:27:05;9.13;;;8.50;;
6679;SDS011;3376;42.664;23.346;2022-12-28T01:29:32;9.43;;;8.80;;
6679;SDS011;3376;42.664;23.346;2022-12-28T01:32:00;10.27;;;9.47;;
6679;SDS011;3376;42.664;23.346;2022-12-28T01:34:27;10.60;;;9.63;;
6679;SDS011;3376;42.664;23.346;2022-12-28T01:36:53;10.70;;;9.90;;
6679;SDS011;3376;42.664;23.346;2022-12-28T01:39:20;9.87;;;9.17;;
6679;SDS011;3376;42.664;23.346;2022-12-28T01:41:47;10.10;;;9.43;;
6679;SDS011;3376;42.664;23.346;2022-12-28T01:47:04;10.53;;;9.80;;
6679;SDS011;3376;42.664;23.346;2022-12-28T01:49:35;11.57;;;10.67;;
6679;SDS011;3376;42.664;23.346;2022-12-28T01:52:05;11.70;;;10.80;;
6679;SDS011;3376;42.664;23.346;2022-12-28T01:54:38;12.27;;;11.37;;
6679;SDS011;3376;42.664;23.346;2022-12-28T01:57:08;12.43;;;11.33;;
6679;SDS011;3376;42.664;23.346;2022-12-28T01:59:37;11.80;;;10.80;;
6679;SDS011;3376;42.664;23.346;2022-12-28T02:02:08;12.70;;;11.70;;
6679;SDS011;3376;42.664;23.346;2022-12-28T02:04:37;11.37;;;10.47;;
6679;SDS011;3376;42.664;23.346;2022-12-28T02:07:04;11.53;;;10.73;;
6679;SDS011;3376;42.664;23.346;2022-12-28T02:09:32;12.37;;;11.33;;
6679;SDS011;3376;42.664;23.346;2022-12-28T02:12:03;11.63;;;10.73;;
6679;SDS011;3376;42.664;23.346;2022-12-28T02:14:30;11.97;;;11.17;;
6679;SDS011;3376;42.664;23.346;2022-12-28T02:16:57;11.67;;;10.70;;
6679;SDS011;3376;42.664;23.346;2022-12-28T02:19:28;12.13;;;11.00;;
6679;SDS011;3376;42.664;23.346;2022-12-28T02:22:08;11.83;;;11.03;;
6679;SDS011;3376;42.664;23.346;2022-12-28T02:24:57;12.33;;;11.20;;
6679;SDS011;3376;42.664;23.346;2022-12-28T02:27:45;11.10;;;10.30;;
6679;SDS011;3376;42.664;23.346;2022-12-28T02:30:25;13.27;;;12.00;;
6679;SDS011;3376;42.664;23.346;2022-12-28T02:32:54;11.83;;;10.83;;
6679;SDS011;3376;42.664;23.346;2022-12-28T02:35:28;11.27;;;10.37;;
6679;SDS011;3376;42.664;23.346;2022-12-28T02:38:00;10.83;;;10.13;;
6679;SDS011;3376;42.664;23.346;2022-12-28T02:40:31;13.07;;;12.07;;
6679;SDS011;3376;42.664;23.346;2022-12-28T02:43:03;14.50;;;12.97;;
6679;SDS011;3376;42.664;23.346;2022-12-28T02:48:37;12.47;;;11.50;;
6679;SDS011;3376;42.664;23.346;2022-12-28T02:51:31;12.97;;;11.97;;
6679;SDS011;3376;42.664;23.346;2022-12-28T02:54:18;12.63;;;11.37;;
6679;SDS011;3376;42.664;23.346;2022-12-28T02:57:33;10.53;;;9.80;;
6679;SDS011;3376;42.664;23.346;2022-12-28T03:00:12;10.13;;;9.43;;
6679;SDS011;3376;42.664;23.346;2022-12-28T03:02:46;10.87;;;10.07;;
6679;SDS011;3376;42.664;23.346;2022-12-28T03:05:29;9.93;;;9.17;;
6679;SDS011;3376;42.664;23.346;2022-12-28T03:08:19;9.80;;;9.13;;
6679;SDS011;3376;42.664;23.346;2022-12-28T03:11:03;10.13;;;9.27;;
6679;SDS011;3376;42.664;23.346;2022-12-28T03:13:35;10.00;;;9.20;;
6679;SDS011;3376;42.664;23.346;2022-12-28T03:16:11;9.80;;;9.20;;
6679;SDS011;3376;42.664;23.346;2022-12-28T03:18:43;9.73;;;9.07;;
6679;SDS011;3376;42.664;23.346;2022-12-28T03:21:29;10.17;;;9.47;;
6679;SDS011;3376;42.664;23.346;2022-12-28T03:24:15;10.03;;;9.23;;
6679;SDS011;3376;42.664;23.346;2022-12-28T03:27:02;10.10;;;9.40;;
6679;SDS011;3376;42.664;23.346;2022-12-28T03:29:53;10.13;;;9.47;;
6679;SDS011;3376;42.664;23.346;2022-12-28T03:32:42;9.40;;;8.90;;
6679;SDS011;3376;42.664;23.346;2022-12-28T03:35:10;10.33;;;9.53;;
6679;SDS011;3376;42.664;23.346;2022-12-28T03:37:39;9.90;;;9.20;;
6679;SDS011;3376;42.664;23.346;2022-12-28T03:40:15;9.40;;;8.60;;
6679;SDS011;3376;42.664;23.346;2022-12-28T03:42:50;10.43;;;9.63;;
6679;SDS011;3376;42.664;23.346;2022-12-28T03:45:40;9.87;;;9.07;;
6679;SDS011;3376;42.664;23.346;2022-12-28T03:48:13;9.40;;;8.70;;
6679;SDS011;3376;42.664;23.346;2022-12-28T03:50:43;9.10;;;8.60;;
6679;SDS011;3376;42.664;23.346;2022-12-28T03:53:11;9.40;;;8.57;;
6679;SDS011;3376;42.664;23.346;2022-12-28T03:55:39;8.60;;;8.07;;
6679;SDS011;3376;42.664;23.346;2022-12-28T03:58:07;7.30;;;6.90;;
6679;SDS011;3376;42.664;23.346;2022-12-28T04:00:34;8.23;;;7.57;;
6679;SDS011;3376;42.664;23.346;2022-12-28T04:03:00;7.70;;;7.23;;
6679;SDS011;3376;42.664;23.346;2022-12-28T04:05:27;7.73;;;7.20;;
6679;SDS011;3376;42.664;23.346;2022-12-28T04:07:55;7.30;;;6.80;;
6679;SDS011;3376;42.664;23.346;2022-12-28T04:10:22;7.50;;;7.00;;
6679;SDS011;3376;42.664;23.346;2022-12-28T04:12:52;6.63;;;6.23;;
6679;SDS011;3376;42.664;23.346;2022-12-28T04:15:20;7.77;;;7.27;;
6679;SDS011;3376;42.664;23.346;2022-12-28T04:17:46;6.93;;;6.57;;
6679;SDS011;3376;42.664;23.346;2022-12-28T04:20:13;7.03;;;6.53;;
6679;SDS011;3376;42.664;23.346;2022-12-28T04:22:40;7.17;;;6.77;;
6679;SDS011;3376;42.664;23.346;2022-12-28T04:25:08;7.93;;;7.27;;
6679;SDS011;3376;42.664;23.346;2022-12-28T04:27:35;6.77;;;6.27;;
6679;SDS011;3376;42.664;23.346;2022-12-28T04:30:02;6.97;;;6.40;;
6679;SDS011;3376;42.664;23.346;2022-12-28T04:32:29;7.00;;;6.40;;
6679;SDS011;3376;42.664;23.346;2022-12-28T04:34:55;7.03;;;6.53;;
6679;SDS011;3376;42.664;23.346;2022-12-28T04:37:22;6.70;;;6.30;;
6679;SDS011;3376;42.664;23.346;2022-12-28T04:39:49;6.30;;;5.90;;
6679;SDS011;3376;42.664;23.346;2022-12-28T04:42:17;6.07;;;5.67;;
6679;SDS011;3376;42.664;23.346;2022-12-28T04:44:44;6.30;;;5.90;;
6679;SDS011;3376;42.664;23.346;2022-12-28T04:47:10;6.47;;;5.90;;
6679;SDS011;3376;42.664;23.346;2022-12-28T04:49:37;7.07;;;5.90;;
6679;SDS011;3376;42.664;23.346;2022-12-28T04:52:04;5.60;;;5.30;;
6679;SDS011;3376;42.664;23.346;2022-12-28T04:54:31;5.60;;;5.30;;
6679;SDS011;3376;42.664;23.346;2022-12-28T04:56:57;5.70;;;5.40;;
6679;SDS011;3376;42.664;23.346;2022-12-28T04:59:25;6.07;;;5.60;;
6679;SDS011;3376;42.664;23.346;2022-12-28T05:01:52;5.33;;;5.03;;
6679;SDS011;3376;42.664;23.346;2022-12-28T05:04:19;5.00;;;4.70;;
6679;SDS011;3376;42.664;23.346;2022-12-28T05:06:46;5.40;;;4.90;;
6679;SDS011;3376;42.664;23.346;2022-12-28T05:09:12;5.07;;;4.77;;
6679;SDS011;3376;42.664;23.346;2022-12-28T05:11:39;4.90;;;4.67;;
6679;SDS011;3376;42.664;23.346;2022-12-28T05:14:06;5.10;;;4.87;;
6679;SDS011;3376;42.664;23.346;2022-12-28T05:16:34;5.37;;;4.97;;
6679;SDS011;3376;42.664;23.346;2022-12-28T05:19:00;5.33;;;5.03;;
6679;SDS011;3376;42.664;23.346;2022-12-28T05:21:27;5.47;;;5.07;;
6679;SDS011;3376;42.664;23.346;2022-12-28T05:23:54;4.80;;;4.60;;
6679;SDS011;3376;42.664;23.346;2022-12-28T05:26:22;5.30;;;4.90;;
6679;SDS011;3376;42.664;23.346;2022-12-28T05:28:50;5.70;;;5.37;;
6679;SDS011;3376;42.664;23.346;2022-12-28T05:31:17;5.27;;;4.97;;
6679;SDS011;3376;42.664;23.346;2022-12-28T05:33:47;5.27;;;4.97;;
6679;SDS011;3376;42.664;23.346;2022-12-28T05:36:15;5.33;;;5.03;;
6679;SDS011;3376;42.664;23.346;2022-12-28T05:38:43;4.80;;;4.50;;
6679;SDS011;3376;42.664;23.346;2022-12-28T05:41:11;4.50;;;4.30;;
6679;SDS011;3376;42.664;23.346;2022-12-28T05:43:39;5.10;;;4.80;;
6679;SDS011;3376;42.664;23.346;2022-12-28T05:46:07;4.40;;;4.20;;
6679;SDS011;3376;42.664;23.346;2022-12-28T05:48:37;4.97;;;4.67;;
6679;SDS011;3376;42.664;23.346;2022-12-28T05:51:07;4.90;;;4.60;;
6679;SDS011;3376;42.664;23.346;2022-12-28T05:53:35;4.90;;;4.60;;
6679;SDS011;3376;42.664;23.346;2022-12-28T05:56:03;4.53;;;4.23;;
6679;SDS011;3376;42.664;23.346;2022-12-28T05:58:31;4.60;;;4.30;;
6679;SDS011;3376;42.664;23.346;2022-12-28T06:01:04;4.63;;;4.23;;
6679;SDS011;3376;42.664;23.346;2022-12-28T06:03:33;5.40;;;4.90;;
6679;SDS011;3376;42.664;23.346;2022-12-28T06:06:03;5.00;;;4.80;;
6679;SDS011;3376;42.664;23.346;2022-12-28T06:08:33;4.83;;;4.43;;
6679;SDS011;3376;42.664;23.346;2022-12-28T06:11:01;6.50;;;4.63;;
6679;SDS011;3376;42.664;23.346;2022-12-28T06:13:29;4.50;;;4.20;;
6679;SDS011;3376;42.664;23.346;2022-12-28T06:15:57;4.87;;;4.67;;
6679;SDS011;3376;42.664;23.346;2022-12-28T06:18:27;5.13;;;4.50;;
6679;SDS011;3376;42.664;23.346;2022-12-28T06:20:54;5.00;;;4.70;;
6679;SDS011;3376;42.664;23.346;2022-12-28T06:23:26;5.20;;;4.90;;
6679;SDS011;3376;42.664;23.346;2022-12-28T06:25:55;4.83;;;4.53;;
6679;SDS011;3376;42.664;23.346;2022-12-28T06:28:23;5.20;;;4.80;;
6679;SDS011;3376;42.664;23.346;2022-12-28T06:30:50;5.20;;;4.90;;
6679;SDS011;3376;42.664;23.346;2022-12-28T06:33:16;5.87;;;5.47;;
6679;SDS011;3376;42.664;23.346;2022-12-28T06:35:43;5.30;;;5.00;;
6679;SDS011;3376;42.664;23.346;2022-12-28T06:38:10;5.20;;;4.80;;
6679;SDS011;3376;42.664;23.346;2022-12-28T06:40:36;5.10;;;4.80;;
6679;SDS011;3376;42.664;23.346;2022-12-28T06:43:04;5.17;;;4.77;;
6679;SDS011;3376;42.664;23.346;2022-12-28T06:45:31;5.20;;;4.80;;
6679;SDS011;3376;42.664;23.346;2022-12-28T06:47:58;5.53;;;5.23;;
6679;SDS011;3376;42.664;23.346;2022-12-28T06:50:25;5.77;;;5.37;;
6679;SDS011;3376;42.664;23.346;2022-12-28T06:52:51;6.30;;;5.80;;
6679;SDS011;3376;42.664;23.346;2022-12-28T06:55:18;6.00;;;5.70;;
6679;SDS011;3376;42.664;23.346;2022-12-28T06:57:45;6.40;;;6.00;;
6679;SDS011;3376;42.664;23.346;2022-12-28T07:00:13;9.07;;;6.43;;
6679;SDS011;3376;42.664;23.346;2022-12-28T07:02:41;6.10;;;5.70;;
6679;SDS011;3376;42.664;23.346;2022-12-28T07:05:07;6.27;;;5.87;;
6679;SDS011;3376;42.664;23.346;2022-12-28T07:07:34;6.63;;;6.23;;
6679;SDS011;3376;42.664;23.346;2022-12-28T07:10:01;6.50;;;6.20;;
6679;SDS011;3376;42.664;23.346;2022-12-28T07:12:28;7.00;;;6.40;;
6679;SDS011;3376;42.664;23.346;2022-12-28T07:14:55;6.70;;;6.07;;
6679;SDS011;3376;42.664;23.346;2022-12-28T07:17:23;6.70;;;6.17;;
6679;SDS011;3376;42.664;23.346;2022-12-28T07:19:49;5.67;;;5.27;;
6679;SDS011;3376;42.664;23.346;2022-12-28T07:22:16;6.13;;;5.80;;
6679;SDS011;3376;42.664;23.346;2022-12-28T07:24:43;6.17;;;5.77;;
6679;SDS011;3376;42.664;23.346;2022-12-28T07:27:09;7.63;;;7.03;;
6679;SDS011;3376;42.664;23.346;2022-12-28T07:29:36;7.10;;;6.67;;
6679;SDS011;3376;42.664;23.346;2022-12-28T07:32:05;9.80;;;6.93;;
6679;SDS011;3376;42.664;23.346;2022-12-28T07:34:33;8.90;;;7.93;;
6679;SDS011;3376;42.664;23.346;2022-12-28T07:37:00;9.83;;;7.20;;
6679;SDS011;3376;42.664;23.346;2022-12-28T07:39:27;8.07;;;7.47;;
6679;SDS011;3376;42.664;23.346;2022-12-28T07:41:54;7.60;;;7.00;;
6679;SDS011;3376;42.664;23.346;2022-12-28T07:44:20;6.37;;;5.97;;
6679;SDS011;3376;42.664;23.346;2022-12-28T07:46:47;8.00;;;7.37;;
6679;SDS011;3376;42.664;23.346;2022-12-28T07:49:14;8.07;;;7.47;;
6679;SDS011;3376;42.664;23.346;2022-12-28T07:51:42;10.03;;;9.27;;
6679;SDS011;3376;42.664;23.346;2022-12-28T07:54:08;9.53;;;8.83;;
6679;SDS011;3376;42.664;23.346;2022-12-28T07:56:35;9.90;;;9.10;;
6679;SDS011;3376;42.664;23.346;2022-12-28T07:59:02;10.87;;;10.03;;
6679;SDS011;3376;42.664;23.346;2022-12-28T08:01:31;10.97;;;9.00;;
6679;SDS011;3376;42.664;23.346;2022-12-28T08:03:59;8.73;;;7.90;;
6679;SDS011;3376;42.664;23.346;2022-12-28T08:06:28;9.23;;;8.53;;
6679;SDS011;3376;42.664;23.346;2022-12-28T08:08:58;9.87;;;8.97;;
6679;SDS011;3376;42.664;23.346;2022-12-28T08:11:26;9.40;;;8.80;;
6679;SDS011;3376;42.664;23.346;2022-12-28T08:13:55;9.30;;;8.50;;
6679;SDS011;3376;42.664;23.346;2022-12-28T08:16:23;10.07;;;9.10;;
6679;SDS011;3376;42.664;23.346;2022-12-28T08:18:52;8.80;;;8.30;;
6679;SDS011;3376;42.664;23.346;2022-12-28T08:21:20;9.43;;;8.40;;
6679;SDS011;3376;42.664;23.346;2022-12-28T08:23:48;8.40;;;7.90;;
6679;SDS011;3376;42.664;23.346;2022-12-28T08:26:17;8.60;;;7.80;;
6679;SDS011;3376;42.664;23.346;2022-12-28T08:28:46;9.07;;;8.17;;
6679;SDS011;3376;42.664;23.346;2022-12-28T08:31:15;9.17;;;8.30;;
6679;SDS011;3376;42.664;23.346;2022-12-28T08:33:44;9.53;;;8.70;;
6679;SDS011;3376;42.664;23.346;2022-12-28T08:36:11;9.90;;;9.10;;
6679;SDS011;3376;42.664;23.346;2022-12-28T08:38:38;30.37;;;9.63;;
6679;SDS011;3376;42.664;23.346;2022-12-28T08:41:06;10.27;;;9.07;;
6679;SDS011;3376;42.664;23.346;2022-12-28T08:43:37;9.37;;;8.67;;
6679;SDS011;3376;42.664;23.346;2022-12-28T08:46:05;9.77;;;9.07;;
6679;SDS011;3376;42.664;23.346;2022-12-28T08:48:33;10.93;;;8.73;;
6679;SDS011;3376;42.664;23.346;2022-12-28T08:51:01;8.93;;;8.33;;
6679;SDS011;3376;42.664;23.346;2022-12-28T08:53:29;9.83;;;8.93;;
6679;SDS011;3376;42.664;23.346;2022-12-28T08:56:01;10.27;;;9.27;;
6679;SDS011;3376;42.664;23.346;2022-12-28T08:58:29;10.70;;;9.57;;
6679;SDS011;3376;42.664;23.346;2022-12-28T09:00:57;10.20;;;9.23;;
6679;SDS011;3376;42.664;23.346;2022-12-28T09:03:30;11.33;;;10.23;;
6679;SDS011;3376;42.664;23.346;2022-12-28T09:05:57;11.03;;;10.03;;
6679;SDS011;3376;42.664;23.346;2022-12-28T09:08:27;12.30;;;10.43;;
6679;SDS011;3376;42.664;23.346;2022-12-28T09:10:57;10.77;;;9.97;;
6679;SDS011;3376;42.664;23.346;2022-12-28T09:13:24;9.50;;;8.80;;
6679;SDS011;3376;42.664;23.346;2022-12-28T09:15:54;9.87;;;9.07;;
6679;SDS011;3376;42.664;23.346;2022-12-28T09:18:23;9.77;;;8.87;;
6679;SDS011;3376;42.664;23.346;2022-12-28T09:20:50;10.47;;;9.57;;
6679;SDS011;3376;42.664;23.346;2022-12-28T09:23:16;7.93;;;7.37;;
6679;SDS011;3376;42.664;23.346;2022-12-28T09:25:43;8.27;;;7.50;;
6679;SDS011;3376;42.664;23.346;2022-12-28T09:28:10;6.70;;;6.20;;
6679;SDS011;3376;42.664;23.346;2022-12-28T09:30:37;7.03;;;6.67;;
6679;SDS011;3376;42.664;23.346;2022-12-28T09:33:04;6.53;;;6.13;;
6679;SDS011;3376;42.664;23.346;2022-12-28T09:35:49;6.47;;;5.90;;
6679;SDS011;3376;42.664;23.346;2022-12-28T09:38:16;6.43;;;6.03;;
6679;SDS011;3376;42.664;23.346;2022-12-28T09:40:42;6.10;;;5.80;;
6679;SDS011;3376;42.664;23.346;2022-12-28T09:43:09;6.37;;;5.87;;
6679;SDS011;3376;42.664;23.346;2022-12-28T09:45:37;8.50;;;6.57;;
6679;SDS011;3376;42.664;23.346;2022-12-28T09:48:06;6.30;;;5.90;;
6679;SDS011;3376;42.664;23.346;2022-12-28T09:50:38;6.50;;;6.17;;
6679;SDS011;3376;42.664;23.346;2022-12-28T09:53:13;6.97;;;6.57;;
6679;SDS011;3376;42.664;23.346;2022-12-28T09:55:50;6.70;;;6.30;;
6679;SDS011;3376;42.664;23.346;2022-12-28T09:58:22;7.27;;;6.77;;
6679;SDS011;3376;42.664;23.346;2022-12-28T10:00:50;8.60;;;8.00;;
6679;SDS011;3376;42.664;23.346;2022-12-28T10:03:19;7.27;;;6.87;;
6679;SDS011;3376;42.664;23.346;2022-12-28T10:05:48;7.07;;;6.63;;
6679;SDS011;3376;42.664;23.346;2022-12-28T10:08:17;6.57;;;6.17;;
6679;SDS011;3376;42.664;23.346;2022-12-28T10:10:47;8.87;;;6.90;;
6679;SDS011;3376;42.664;23.346;2022-12-28T10:13:15;7.40;;;6.70;;
6679;SDS011;3376;42.664;23.346;2022-12-28T10:15:45;7.27;;;6.70;;
6679;SDS011;3376;42.664;23.346;2022-12-28T10:18:13;7.50;;;6.83;;
6679;SDS011;3376;42.664;23.346;2022-12-28T10:20:40;7.63;;;7.03;;
6679;SDS011;3376;42.664;23.346;2022-12-28T10:23:10;7.10;;;6.57;;
6679;SDS011;3376;42.664;23.346;2022-12-28T10:25:42;7.70;;;7.10;;
6679;SDS011;3376;42.664;23.346;2022-12-28T10:28:10;7.67;;;7.27;;
6679;SDS011;3376;42.664;23.346;2022-12-28T10:30:43;8.10;;;7.50;;
6679;SDS011;3376;42.664;23.346;2022-12-28T10:33:15;7.43;;;6.97;;
6679;SDS011;3376;42.664;23.346;2022-12-28T10:35:47;7.53;;;7.13;;
6679;SDS011;3376;42.664;23.346;2022-12-28T10:38:19;7.77;;;7.30;;
6679;SDS011;3376;42.664;23.346;2022-12-28T10:40:54;8.53;;;7.77;;
6679;SDS011;3376;42.664;23.346;2022-12-28T10:43:26;9.07;;;8.47;;
6679;SDS011;3376;42.664;23.346;2022-12-28T10:45:55;9.37;;;8.57;;
6679;SDS011;3376;42.664;23.346;2022-12-28T10:48:25;9.23;;;8.30;;
6679;SDS011;3376;42.664;23.346;2022-12-28T10:50:55;9.23;;;8.50;;
6679;SDS011;3376;42.664;23.346;2022-12-28T10:53:26;9.70;;;8.80;;
6679;SDS011;3376;42.664;23.346;2022-12-28T10:56:04;9.53;;;8.70;;
6679;SDS011;3376;42.664;23.346;2022-12-28T10:58:46;9.60;;;8.93;;
6679;SDS011;3376;42.664;23.346;2022-12-28T11:01:17;9.17;;;8.30;;
6679;SDS011;3376;42.664;23.346;2022-12-28T11:03:56;9.07;;;8.37;;
6679;SDS011;3376;42.664;23.346;2022-12-28T11:06:28;9.00;;;8.30;;
6679;SDS011;3376;42.664;23.346;2022-12-28T11:09:01;9.67;;;8.13;;
6679;SDS011;3376;42.664;23.346;2022-12-28T11:11:32;8.50;;;7.73;;
6679;SDS011;3376;42.664;23.346;2022-12-28T11:13:59;7.97;;;7.47;;
6679;SDS011;3376;42.664;23.346;2022-12-28T11:16:32;8.47;;;7.93;;
6679;SDS011;3376;42.664;23.346;2022-12-28T11:19:01;9.23;;;8.50;;
6679;SDS011;3376;42.664;23.346;2022-12-28T11:21:28;8.33;;;7.80;;
6679;SDS011;3376;42.664;23.346;2022-12-28T11:23:56;9.63;;;8.93;;
6679;SDS011;3376;42.664;23.346;2022-12-28T11:26:23;9.20;;;8.50;;
6679;SDS011;3376;42.664;23.346;2022-12-28T11:28:54;7.87;;;7.23;;
6679;SDS011;3376;42.664;23.346;2022-12-28T11:31:22;9.17;;;8.57;;
6679;SDS011;3376;42.664;23.346;2022-12-28T11:33:51;8.63;;;8.00;;
6679;SDS011;3376;42.664;23.346;2022-12-28T11:36:22;9.63;;;8.77;;
6679;SDS011;3376;42.664;23.346;2022-12-28T11:38:51;10.07;;;9.07;;
6679;SDS011;3376;42.664;23.346;2022-12-28T11:44:19;8.87;;;8.27;;
6679;SDS011;3376;42.664;23.346;2022-12-28T11:46:58;9.50;;;8.53;;
6679;SDS011;3376;42.664;23.346;2022-12-28T11:49:28;16.10;;;9.87;;
6679;SDS011;3376;42.664;23.346;2022-12-28T11:58:33;10.80;;;9.83;;
6679;SDS011;3376;42.664;23.346;2022-12-28T12:04:16;16.70;;;12.63;;
6679;SDS011;3376;42.664;23.346;2022-12-28T12:10:13;16.70;;;13.50;;
6679;SDS011;3376;42.664;23.346;2022-12-28T12:13:02;25.23;;;18.67;;
6679;SDS011;3376;42.664;23.346;2022-12-28T12:15:44;21.63;;;14.20;;
6679;SDS011;3376;42.664;23.346;2022-12-28T12:18:15;15.40;;;14.00;;
6679;SDS011;3376;42.664;23.346;2022-12-28T12:20:47;14.70;;;13.13;;
6679;SDS011;3376;42.664;23.346;2022-12-28T12:23:25;14.83;;;13.30;;
6679;SDS011;3376;42.664;23.346;2022-12-28T12:25:58;20.83;;;14.90;;
6679;SDS011;3376;42.664;23.346;2022-12-28T12:28:33;21.30;;;15.20;;
6679;SDS011;3376;42.664;23.346;2022-12-28T12:31:05;15.60;;;14.20;;
6679;SDS011;3376;42.664;23.346;2022-12-28T12:33:38;16.77;;;15.07;;
6679;SDS011;3376;42.664;23.346;2022-12-28T12:36:13;20.30;;;15.30;;
6679;SDS011;3376;42.664;23.346;2022-12-28T12:38:58;21.63;;;16.27;;
6679;SDS011;3376;42.664;23.346;2022-12-28T12:41:37;22.63;;;16.57;;
6679;SDS011;3376;42.664;23.346;2022-12-28T12:44:17;22.47;;;17.23;;
6679;SDS011;3376;42.664;23.346;2022-12-28T12:53:20;16.70;;;14.90;;
6679;SDS011;3376;42.664;23.346;2022-12-28T12:56:06;17.27;;;15.33;;
6679;SDS011;3376;42.664;23.346;2022-12-28T12:58:46;19.27;;;15.83;;
6679;SDS011;3376;42.664;23.346;2022-12-28T13:01:32;27.20;;;17.10;;
6679;SDS011;3376;42.664;23.346;2022-12-28T13:04:07;15.43;;;13.90;;
6679;SDS011;3376;42.664;23.346;2022-12-28T13:06:41;15.40;;;13.80;;
6679;SDS011;3376;42.664;23.346;2022-12-28T13:09:11;13.03;;;11.93;;
6679;SDS011;3376;42.664;23.346;2022-12-28T13:11:41;35.10;;;25.10;;
6679;SDS011;3376;42.664;23.346;2022-12-28T13:14:11;16.20;;;13.20;;
6679;SDS011;3376;42.664;23.346;2022-12-28T13:16:45;12.87;;;11.53;;
6679;SDS011;3376;42.664;23.346;2022-12-28T13:19:15;12.30;;;11.30;;
6679;SDS011;3376;42.664;23.346;2022-12-28T13:21:46;14.07;;;11.70;;
6679;SDS011;3376;42.664;23.346;2022-12-28T13:24:20;12.97;;;11.83;;
6679;SDS011;3376;42.664;23.346;2022-12-28T13:26:49;12.10;;;10.57;;
6679;SDS011;3376;42.664;23.346;2022-12-28T13:29:17;11.20;;;10.30;;
6679;SDS011;3376;42.664;23.346;2022-12-28T13:31:45;10.97;;;9.87;;
6679;SDS011;3376;42.664;23.346;2022-12-28T13:34:15;12.30;;;9.80;;
6679;SDS011;3376;42.664;23.346;2022-12-28T13:36:48;9.77;;;9.03;;
6679;SDS011;3376;42.664;23.346;2022-12-28T13:39:18;11.33;;;10.37;;
6679;SDS011;3376;42.664;23.346;2022-12-28T13:41:47;11.30;;;10.33;;
6679;SDS011;3376;42.664;23.346;2022-12-28T13:44:26;15.43;;;11.13;;
6679;SDS011;3376;42.664;23.346;2022-12-28T13:46:59;11.43;;;10.53;;
6679;SDS011;3376;42.664;23.346;2022-12-28T13:49:30;11.53;;;10.43;;
6679;SDS011;3376;42.664;23.346;2022-12-28T13:52:06;11.60;;;10.70;;
6679;SDS011;3376;42.664;23.346;2022-12-28T13:54:37;11.87;;;10.70;;
6679;SDS011;3376;42.664;23.346;2022-12-28T13:57:04;11.63;;;10.63;;
6679;SDS011;3376;42.664;23.346;2022-12-28T13:59:33;13.03;;;11.90;;
6679;SDS011;3376;42.664;23.346;2022-12-28T14:02:01;12.63;;;11.53;;
6679;SDS011;3376;42.664;23.346;2022-12-28T14:04:30;18.23;;;10.67;;
6679;SDS011;3376;42.664;23.346;2022-12-28T14:06:58;12.97;;;11.60;;
6679;SDS011;3376;42.664;23.346;2022-12-28T14:09:26;13.67;;;12.03;;
6679;SDS011;3376;42.664;23.346;2022-12-28T14:11:53;13.57;;;12.03;;
6679;SDS011;3376;42.664;23.346;2022-12-28T14:14:21;15.07;;;13.07;;
6679;SDS011;3376;42.664;23.346;2022-12-28T14:16:47;14.80;;;13.03;;
6679;SDS011;3376;42.664;23.346;2022-12-28T14:19:15;15.40;;;12.40;;
6679;SDS011;3376;42.664;23.346;2022-12-28T14:21:42;14.20;;;12.90;;
6679;SDS011;3376;42.664;23.346;2022-12-28T14:24:10;14.67;;;13.00;;
6679;SDS011;3376;42.664;23.346;2022-12-28T14:26:43;15.90;;;14.07;;
6679;SDS011;3376;42.664;23.346;2022-12-28T14:29:16;15.17;;;13.67;;
6679;SDS011;3376;42.664;23.346;2022-12-28T14:31:46;15.20;;;13.63;;
6679;SDS011;3376;42.664;23.346;2022-12-28T14:34:20;17.20;;;14.83;;
6679;SDS011;3376;42.664;23.346;2022-12-28T14:36:50;24.87;;;17.50;;
6679;SDS011;3376;42.664;23.346;2022-12-28T14:39:23;19.80;;;16.50;;
6679;SDS011;3376;42.664;23.346;2022-12-28T14:41:54;19.83;;;16.97;;
6679;SDS011;3376;42.664;23.346;2022-12-28T14:44:24;20.70;;;16.57;;
6679;SDS011;3376;42.664;23.346;2022-12-28T14:46:53;24.13;;;17.33;;
6679;SDS011;3376;42.664;23.346;2022-12-28T14:49:27;21.23;;;16.60;;
6679;SDS011;3376;42.664;23.346;2022-12-28T14:54:51;19.90;;;16.23;;
6679;SDS011;3376;42.664;23.346;2022-12-28T14:57:21;19.07;;;16.87;;
6679;SDS011;3376;42.664;23.346;2022-12-28T14:59:55;17.13;;;15.53;;
6679;SDS011;3376;42.664;23.346;2022-12-28T15:02:38;17.37;;;15.20;;
6679;SDS011;3376;42.664;23.346;2022-12-28T15:08:03;18.37;;;15.47;;
6679;SDS011;3376;42.664;23.346;2022-12-28T15:10:30;21.23;;;17.40;;
6679;SDS011;3376;42.664;23.346;2022-12-28T15:13:00;17.77;;;15.87;;
6679;SDS011;3376;42.664;23.346;2022-12-28T15:15:27;19.47;;;16.13;;
6679;SDS011;3376;42.664;23.346;2022-12-28T15:17:54;17.20;;;15.37;;
6679;SDS011;3376;42.664;23.346;2022-12-28T15:20:21;20.43;;;16.07;;
6679;SDS011;3376;42.664;23.346;2022-12-28T15:22:47;20.70;;;16.57;;
6679;SDS011;3376;42.664;23.346;2022-12-28T15:25:14;19.30;;;17.23;;
6679;SDS011;3376;42.664;23.346;2022-12-28T15:27:41;18.27;;;16.47;;
6679;SDS011;3376;42.664;23.346;2022-12-28T15:30:09;17.50;;;15.80;;
6679;SDS011;3376;42.664;23.346;2022-12-28T15:32:37;20.23;;;16.13;;
6679;SDS011;3376;42.664;23.346;2022-12-28T15:35:04;19.03;;;17.07;;
6679;SDS011;3376;42.664;23.346;2022-12-28T15:37:31;21.47;;;17.37;;
6679;SDS011;3376;42.664;23.346;2022-12-28T15:39:58;23.27;;;18.73;;
6679;SDS011;3376;42.664;23.346;2022-12-28T15:42:24;21.47;;;18.00;;
6679;SDS011;3376;42.664;23.346;2022-12-28T15:44:51;26.47;;;19.13;;